CheckWX is a tool to help pilots better visualize weather data.  It is not intended as a substitute for an official pre-flight weather briefing.

04:41:01 UTC

SPJC TAF
Jorge Chávez International Airport
Callao, Peru
SPJC 222300Z 2300/2324 18010KT 9999 BKN120 TX26/2319Z TN20/2311Z FM230300 17008KT CAVOK BECMG 2314/2316 24006KT BECMG 2320/2321 18010KT

Mar-23@
00:00 UTC

Mar-23 @ 00:00 UTC

Mar-23@
03:00 UTC

Mar-23 @ 03:00 UTC

SPJC 222300Z 2300/2324 18010KT 9999 BKN120 TX26/2319Z TN20/2311Z

Expired

Wind
  • 180° at 10 KTS
Cloud Levels
  • Broken at 12,000' AGL

Mar-23@
03:00 UTC

Mar-23 @ 03:00 UTC

Mar-23@
14:00 UTC

Mar-23 @ 14:00 UTC

FM230300 17008KT CAVOK

From

From Standard forecast or significant change

Wind
  • 170° at 8 KTS
Conditions
No significant weather
Cloud Levels
  • No significant clouds

Mar-23@
14:00 UTC

Mar-23 @ 14:00 UTC

Mar-23@
20:00 UTC

Mar-23 @ 20:00 UTC

BECMG 2314/2316 24006KT

Becoming

Becoming Conditions expected by Sat, Mar 23, 2019 @ 16:00 UTC

Wind
  • 240° at 6 KTS
Conditions
No significant weather
Cloud Levels
  • No significant clouds

Mar-23@
20:00 UTC

Mar-23 @ 20:00 UTC

Mar-24@
00:00 UTC

Mar-24 @ 00:00 UTC

BECMG 2320/2321 18010KT

Becoming

Becoming Conditions expected by Sat, Mar 23, 2019 @ 21:00 UTC

Wind
  • 180° at 10 KTS
Conditions
No significant weather
Cloud Levels
  • No significant clouds